createdAt,value
2019-01-24T00:01:20.515Z,4.13
2019-01-24T00:03:48.225Z,6.03
2019-01-24T00:06:15.917Z,5.53
2019-01-24T00:08:43.621Z,4.07
2019-01-24T00:11:11.314Z,5.40
2019-01-24T00:13:39.025Z,7.10
2019-01-24T00:16:06.814Z,4.33
2019-01-24T00:18:34.561Z,3.63
2019-01-24T00:21:02.273Z,6.90
2019-01-24T00:23:29.975Z,6.97
2019-01-24T00:25:57.681Z,3.17
2019-01-24T00:28:25.387Z,3.50
2019-01-24T00:30:53.077Z,5.63
2019-01-24T00:33:20.800Z,5.57
2019-01-24T00:35:48.501Z,3.10
2019-01-24T00:38:16.227Z,4.60
2019-01-24T00:40:43.933Z,4.27
2019-01-24T00:43:11.649Z,3.57
2019-01-24T00:45:39.353Z,5.37
2019-01-24T00:48:07.040Z,4.20
2019-01-24T00:50:34.753Z,2.40
2019-01-24T00:53:02.453Z,8.63
2019-01-24T00:55:30.173Z,4.77
2019-01-24T00:57:57.869Z,6.33
2019-01-24T01:00:25.611Z,4.63
2019-01-24T01:02:53.309Z,4.13
2019-01-24T01:05:21.001Z,3.33
2019-01-24T01:07:48.714Z,7.77
2019-01-24T01:10:16.725Z,3.10
2019-01-24T01:12:44.452Z,2.97
2019-01-24T01:15:13.989Z,3.93
2019-01-24T01:17:41.789Z,3.03
2019-01-24T01:20:11.885Z,3.67
2019-01-24T01:22:39.569Z,3.53
2019-01-24T01:25:08.705Z,2.97
2019-01-24T01:27:36.425Z,5.57
2019-01-24T01:30:05.833Z,4.03
2019-01-24T01:32:33.545Z,4.10
2019-01-24T01:35:01.253Z,6.10
2019-01-24T01:37:28.946Z,5.73
2019-01-24T01:39:56.661Z,3.80
2019-01-24T01:42:24.358Z,5.53
2019-01-24T01:44:52.053Z,3.97
2019-01-24T01:47:19.803Z,3.47
2019-01-24T01:49:47.497Z,4.17
2019-01-24T01:52:15.209Z,3.60
2019-01-24T01:54:42.929Z,3.90
2019-01-24T01:57:10.625Z,5.23
2019-01-24T01:59:38.353Z,4.43
2019-01-24T02:02:06.045Z,3.73
2019-01-24T02:04:33.765Z,4.30
2019-01-24T02:07:01.454Z,5.03
2019-01-24T02:09:29.175Z,3.63
2019-01-24T02:11:56.861Z,7.10
2019-01-24T02:14:24.557Z,3.50
2019-01-24T02:16:52.272Z,4.20
2019-01-24T02:19:20.070Z,4.57
2019-01-24T02:21:47.785Z,5.33
2019-01-24T02:24:15.501Z,4.60
2019-01-24T02:26:43.121Z,4.50
2019-01-24T02:29:10.810Z,4.53
2019-01-24T02:31:38.522Z,5.10
2019-01-24T02:34:06.233Z,4.90
2019-01-24T02:36:33.929Z,5.90
2019-01-24T02:39:01.649Z,5.50
2019-01-24T02:41:29.857Z,6.17
2019-01-24T02:43:57.545Z,5.67
2019-01-24T02:46:25.253Z,5.03
2019-01-24T02:48:52.945Z,5.70
2019-01-24T02:51:20.670Z,5.53
2019-01-24T02:53:48.367Z,5.93
2019-01-24T02:56:16.113Z,6.83
2019-01-24T02:58:43.805Z,5.53
2019-01-24T03:01:11.501Z,5.27
2019-01-24T03:03:39.221Z,5.20
2019-01-24T03:06:06.913Z,5.60
2019-01-24T03:08:34.646Z,6.57
2019-01-24T03:11:02.330Z,6.57
2019-01-24T03:13:30.041Z,6.17
2019-01-24T03:15:57.741Z,6.33
2019-01-24T03:18:25.433Z,6.27
2019-01-24T03:20:53.195Z,5.53
2019-01-24T03:23:20.885Z,5.93
2019-01-24T03:25:48.625Z,6.10
2019-01-24T03:28:16.329Z,5.40
2019-01-24T03:30:44.044Z,7.27
2019-01-24T03:33:11.742Z,5.90
2019-01-24T03:35:39.428Z,7.07
2019-01-24T03:38:07.153Z,6.13
2019-01-24T03:40:34.852Z,6.67
2019-01-24T03:43:02.561Z,7.83
2019-01-24T03:45:30.255Z,10.57
2019-01-24T03:47:57.965Z,7.57
2019-01-24T03:50:25.669Z,10.70
2019-01-24T03:52:53.380Z,6.40
2019-01-24T03:55:21.595Z,9.03
2019-01-24T03:57:49.333Z,8.33
2019-01-24T04:00:19.016Z,6.37
2019-01-24T04:02:46.693Z,8.63
2019-01-24T04:05:16.211Z,7.97
2019-01-24T04:07:43.901Z,8.17
2019-01-24T04:10:13.635Z,8.57
2019-01-24T04:12:41.354Z,8.33
2019-01-24T04:15:10.485Z,11.27
2019-01-24T04:17:38.205Z,6.77
2019-01-24T04:20:06.232Z,6.23
2019-01-24T04:22:33.981Z,8.77
2019-01-24T04:25:01.673Z,8.30
2019-01-24T04:27:29.390Z,9.77
2019-01-24T04:29:57.093Z,9.40
2019-01-24T04:32:24.793Z,8.93
2019-01-24T04:34:52.551Z,7.43
2019-01-24T04:37:20.257Z,8.80
2019-01-24T04:39:47.970Z,9.27
2019-01-24T04:42:15.660Z,10.37
2019-01-24T04:44:43.360Z,9.53
2019-01-24T04:47:11.080Z,8.33
2019-01-24T04:49:38.777Z,8.23
2019-01-24T04:52:06.505Z,9.20
2019-01-24T04:54:34.181Z,8.87
2019-01-24T04:57:01.825Z,8.63
2019-01-24T04:59:29.510Z,13.10
2019-01-24T05:01:57.211Z,8.10
2019-01-24T05:04:24.959Z,9.50
2019-01-24T05:06:52.645Z,10.70
2019-01-24T05:09:20.370Z,9.60
2019-01-24T05:11:48.061Z,9.63
2019-01-24T05:14:15.776Z,9.93
2019-01-24T05:16:43.457Z,9.50
2019-01-24T05:19:11.143Z,9.57
2019-01-24T05:21:38.938Z,11.33
2019-01-24T05:24:06.637Z,8.73
2019-01-24T05:26:34.349Z,9.07
2019-01-24T05:29:02.046Z,9.70
2019-01-24T05:31:29.757Z,8.57
2019-01-24T05:33:57.477Z,8.47
2019-01-24T05:36:25.197Z,8.33
2019-01-24T05:38:52.911Z,9.07
2019-01-24T05:41:20.596Z,10.50
2019-01-24T05:43:48.317Z,8.60
2019-01-24T05:46:16.033Z,9.20
2019-01-24T05:48:44.017Z,8.77
2019-01-24T05:51:11.707Z,9.77
2019-01-24T05:53:39.409Z,8.70
2019-01-24T05:56:07.029Z,5.87
2019-01-24T05:58:34.729Z,8.53
2019-01-24T06:01:04.158Z,11.17
2019-01-24T06:03:31.849Z,8.43
2019-01-24T06:05:59.569Z,8.10
2019-01-24T06:08:27.325Z,6.90
2019-01-24T06:10:55.034Z,8.50
2019-01-24T06:13:22.738Z,9.70
2019-01-24T06:15:50.425Z,11.17
2019-01-24T06:18:18.156Z,10.93
2019-01-24T06:20:45.895Z,13.83
2019-01-24T06:23:13.611Z,16.23
2019-01-24T06:25:41.309Z,13.93
2019-01-24T06:28:09.008Z,10.00
2019-01-24T06:30:36.777Z,8.10
2019-01-24T06:33:04.481Z,10.57
2019-01-24T06:35:32.205Z,8.87
2019-01-24T06:37:59.906Z,15.77
2019-01-24T06:40:27.619Z,9.20
2019-01-24T06:42:55.357Z,12.67
2019-01-24T06:45:23.066Z,12.17
2019-01-24T06:47:50.761Z,13.10
2019-01-24T06:50:18.925Z,13.80
2019-01-24T06:52:46.664Z,11.17
2019-01-24T06:55:20.148Z,9.63
2019-01-24T06:57:47.877Z,12.63
2019-01-24T07:00:16.331Z,10.03
2019-01-24T07:02:44.067Z,11.67
2019-01-24T07:05:11.800Z,13.43
2019-01-24T07:07:39.495Z,11.57
2019-01-24T07:10:10.171Z,12.73
2019-01-24T07:12:37.870Z,12.70
2019-01-24T07:15:07.450Z,14.50
2019-01-24T07:17:35.166Z,13.60
2019-01-24T07:20:03.778Z,9.87
2019-01-24T07:22:31.641Z,14.50
2019-01-24T07:24:59.352Z,11.90
2019-01-24T07:27:27.060Z,11.63
2019-01-24T07:29:54.763Z,12.50
2019-01-24T07:32:22.488Z,12.50
2019-01-24T07:34:50.185Z,8.77
2019-01-24T07:37:17.885Z,11.20
2019-01-24T07:39:45.617Z,12.40
2019-01-24T07:42:13.312Z,12.70
2019-01-24T07:44:41.037Z,15.60
2019-01-24T07:47:08.739Z,13.07
2019-01-24T07:49:36.538Z,14.97
2019-01-24T07:52:04.575Z,10.43
2019-01-24T07:54:32.316Z,9.90
2019-01-24T07:57:00.049Z,10.27
2019-01-24T07:59:27.769Z,9.10
2019-01-24T08:01:55.485Z,11.30
2019-01-24T08:04:23.221Z,9.13
2019-01-24T08:06:50.963Z,11.57
2019-01-24T08:09:18.686Z,12.67
2019-01-24T08:11:46.409Z,9.47
2019-01-24T08:14:14.181Z,7.87
2019-01-24T08:16:41.885Z,9.93
2019-01-24T08:19:09.649Z,10.03
2019-01-24T08:21:37.449Z,8.43
2019-01-24T08:24:08.046Z,13.53
2019-01-24T08:26:35.916Z,11.03
2019-01-24T08:29:03.625Z,9.67
2019-01-24T08:31:31.358Z,14.87
2019-01-24T08:33:59.085Z,11.17
2019-01-24T08:36:26.737Z,10.00
2019-01-24T08:38:54.472Z,9.30
2019-01-24T08:41:22.165Z,13.20
2019-01-24T08:43:49.922Z,10.17
2019-01-24T08:46:17.653Z,9.63
2019-01-24T08:48:45.409Z,14.63
2019-01-24T08:51:13.138Z,12.50
2019-01-24T08:53:40.859Z,11.37
2019-01-24T08:56:08.629Z,10.47
2019-01-24T08:58:39.209Z,22.80
2019-01-24T09:01:06.941Z,9.77
2019-01-24T09:03:34.753Z,11.37
2019-01-24T09:06:02.486Z,10.17
2019-01-24T09:08:30.210Z,9.20
2019-01-24T09:10:57.953Z,7.87
2019-01-24T09:13:25.729Z,8.33
2019-01-24T09:15:53.410Z,7.70
2019-01-24T09:18:21.141Z,10.83
2019-01-24T09:20:49.127Z,13.53
2019-01-24T09:23:16.849Z,9.93
2019-01-24T09:25:44.554Z,11.07
2019-01-24T09:28:14.933Z,10.93
2019-01-24T09:30:41.794Z,11.07
2019-01-24T09:33:09.622Z,9.60
2019-01-24T09:35:37.383Z,12.00
2019-01-24T09:38:05.127Z,8.20
2019-01-24T09:40:32.865Z,11.97
2019-01-24T09:43:00.592Z,9.53
2019-01-24T09:45:28.818Z,10.17
2019-01-24T09:47:58.393Z,11.43
2019-01-24T09:50:26.126Z,9.73
2019-01-24T09:52:53.866Z,10.27
2019-01-24T09:55:21.589Z,9.57
2019-01-24T09:57:49.229Z,10.83
2019-01-24T10:00:19.185Z,11.03
2019-01-24T10:02:46.919Z,7.43
2019-01-24T10:05:14.673Z,13.23
2019-01-24T10:07:42.577Z,10.63
2019-01-24T10:10:12.978Z,8.87
2019-01-24T10:12:40.707Z,11.00
2019-01-24T10:15:09.093Z,11.83
2019-01-24T10:17:36.817Z,11.57
2019-01-24T10:20:06.121Z,11.47
2019-01-24T10:22:33.935Z,13.97
2019-01-24T10:25:01.641Z,13.23
2019-01-24T10:27:29.561Z,13.77
2019-01-24T10:29:57.265Z,12.87
2019-01-24T10:32:24.969Z,11.60
2019-01-24T10:34:52.705Z,14.13
2019-01-24T10:37:20.408Z,12.50
2019-01-24T10:39:48.134Z,14.97
2019-01-24T10:42:15.876Z,13.20
2019-01-24T10:44:43.617Z,17.65
2019-01-24T10:47:11.322Z,11.13
2019-01-24T10:49:39.029Z,13.63
2019-01-24T10:52:06.745Z,17.07
2019-01-24T10:54:34.465Z,14.50
2019-01-24T10:57:06.570Z,14.40
2019-01-24T10:59:34.253Z,12.40
2019-01-24T11:02:02.929Z,15.40
2019-01-24T11:04:30.702Z,10.37
2019-01-24T11:06:58.421Z,8.97
2019-01-24T11:11:53.426Z,17.77
2019-01-24T11:14:21.155Z,12.23
2019-01-24T11:16:48.857Z,12.33
2019-01-24T11:19:16.570Z,11.50
2019-01-24T11:21:44.433Z,11.07
2019-01-24T11:24:12.201Z,12.47
2019-01-24T11:26:39.965Z,13.80
2019-01-24T11:29:07.673Z,12.17
2019-01-24T11:31:35.379Z,11.93
2019-01-24T11:34:03.086Z,12.23
2019-01-24T11:36:30.780Z,13.53
2019-01-24T11:38:58.542Z,12.33
2019-01-24T11:41:26.253Z,12.30
2019-01-24T11:43:53.949Z,9.80
2019-01-24T11:46:21.673Z,14.23
2019-01-24T11:48:49.377Z,13.63
2019-01-24T11:51:17.149Z,10.47
2019-01-24T11:53:45.167Z,12.20
2019-01-24T11:56:12.838Z,10.60
2019-01-24T11:58:40.552Z,10.60
2019-01-24T12:01:08.272Z,14.83
2019-01-24T12:03:36.033Z,10.90
2019-01-24T12:06:03.901Z,11.53
2019-01-24T12:08:31.632Z,8.73
2019-01-24T12:10:59.321Z,9.90
2019-01-24T12:13:27.042Z,9.40
2019-01-24T12:15:54.754Z,9.07
2019-01-24T12:18:22.449Z,10.20
2019-01-24T12:20:50.177Z,9.70
2019-01-24T12:23:17.894Z,8.87
2019-01-24T12:25:45.668Z,7.87
2019-01-24T12:28:13.369Z,7.07
2019-01-24T12:30:41.060Z,6.93
2019-01-24T12:33:08.784Z,6.60
2019-01-24T12:35:36.585Z,10.90
2019-01-24T12:38:04.754Z,6.80
2019-01-24T12:40:32.454Z,8.77
2019-01-24T12:43:00.149Z,7.17
2019-01-24T12:45:30.031Z,7.03
2019-01-24T12:47:57.756Z,6.80
2019-01-24T12:50:25.557Z,7.40
2019-01-24T12:52:53.261Z,7.37
2019-01-24T12:55:21.001Z,6.37
2019-01-24T12:57:48.717Z,9.30
2019-01-24T13:00:21.508Z,9.90
2019-01-24T13:02:49.236Z,7.03
2019-01-24T13:05:16.939Z,7.60
2019-01-24T13:07:44.677Z,6.53
2019-01-24T13:10:14.750Z,6.97
2019-01-24T13:12:42.449Z,10.73
2019-01-24T13:15:10.261Z,8.90
2019-01-24T13:17:37.963Z,6.83
2019-01-24T13:20:07.664Z,8.73
2019-01-24T13:22:35.388Z,6.70
2019-01-24T13:25:03.267Z,6.13
2019-01-24T13:27:30.970Z,6.63
2019-01-24T13:29:58.684Z,8.67
2019-01-24T13:32:26.402Z,6.03
2019-01-24T13:34:54.097Z,6.80
2019-01-24T13:37:25.768Z,6.70
2019-01-24T13:39:51.326Z,7.40
2019-01-24T13:42:19.026Z,6.63
2019-01-24T13:44:46.772Z,6.07
2019-01-24T13:47:14.466Z,5.10
2019-01-24T13:49:42.182Z,11.57
2019-01-24T13:52:09.887Z,6.00
2019-01-24T13:54:44.367Z,6.77
2019-01-24T13:57:12.153Z,5.53
2019-01-24T13:59:39.849Z,7.13
2019-01-24T14:02:07.598Z,8.37
2019-01-24T14:04:42.621Z,7.33
2019-01-24T14:07:10.385Z,5.40
2019-01-24T14:09:38.106Z,10.10
2019-01-24T14:12:05.856Z,9.77
2019-01-24T14:14:33.558Z,4.17
2019-01-24T14:17:01.281Z,7.00
2019-01-24T14:19:29.009Z,5.60
2019-01-24T14:21:56.796Z,5.97
2019-01-24T14:24:24.563Z,5.07
2019-01-24T14:26:52.321Z,9.67
2019-01-24T14:29:19.936Z,4.97
2019-01-24T14:34:14.898Z,5.60
2019-01-24T14:36:42.803Z,5.70
2019-01-24T14:39:10.571Z,7.03
2019-01-24T14:41:38.314Z,6.47
2019-01-24T14:44:06.035Z,8.27
2019-01-24T14:46:33.733Z,8.53
2019-01-24T14:49:01.457Z,6.27
2019-01-24T14:51:29.169Z,10.47
2019-01-24T14:53:57.043Z,9.43
2019-01-24T14:56:24.778Z,5.93
2019-01-24T14:58:52.479Z,11.83
2019-01-24T15:01:23.261Z,8.57
2019-01-24T15:03:50.953Z,9.30
2019-01-24T15:06:19.017Z,8.00
2019-01-24T15:08:46.742Z,8.47
2019-01-24T15:11:14.694Z,8.07
2019-01-24T15:13:42.374Z,7.90
2019-01-24T15:16:10.079Z,8.73
2019-01-24T15:18:38.112Z,9.83
2019-01-24T15:21:05.825Z,6.37
2019-01-24T15:23:33.565Z,7.87
2019-01-24T15:26:01.288Z,9.93
2019-01-24T15:28:28.998Z,7.47
2019-01-24T15:30:56.721Z,5.70
2019-01-24T15:33:24.429Z,9.70
2019-01-24T15:35:52.188Z,6.50
2019-01-24T15:38:20.061Z,6.73
2019-01-24T15:40:47.716Z,8.57
2019-01-24T15:43:15.441Z,7.03
2019-01-24T15:45:43.158Z,9.07
2019-01-24T15:48:10.952Z,10.33
2019-01-24T15:50:38.638Z,6.47
2019-01-24T15:53:06.369Z,8.77
2019-01-24T15:55:34.121Z,9.07
2019-01-24T15:58:01.850Z,7.80
2019-01-24T16:00:30.722Z,8.97
2019-01-24T16:02:58.432Z,6.80
2019-01-24T16:05:26.218Z,8.17
2019-01-24T16:07:53.863Z,7.30
2019-01-24T16:10:21.616Z,10.23
2019-01-24T16:12:49.325Z,6.20
2019-01-24T16:15:19.680Z,6.60
2019-01-24T16:17:47.418Z,8.73
2019-01-24T16:20:17.058Z,6.53
2019-01-24T16:22:44.785Z,6.10
2019-01-24T16:25:13.165Z,7.43
2019-01-24T16:27:41.018Z,7.73
2019-01-24T16:30:11.891Z,7.57
2019-01-24T16:32:39.626Z,7.77
2019-01-24T16:35:08.178Z,7.93
2019-01-24T16:37:35.868Z,6.90
2019-01-24T16:40:04.394Z,5.57
2019-01-24T16:42:32.111Z,8.03
2019-01-24T16:44:59.814Z,9.13
2019-01-24T16:47:27.653Z,9.13
2019-01-24T16:49:55.345Z,9.97
2019-01-24T16:52:23.101Z,9.27
2019-01-24T16:54:50.820Z,8.63
2019-01-24T16:57:18.609Z,8.80
2019-01-24T16:59:46.329Z,10.60
2019-01-24T17:02:14.020Z,10.97
2019-01-24T17:07:09.005Z,10.20
2019-01-24T17:09:36.643Z,14.60
2019-01-24T17:12:04.417Z,11.87
2019-01-24T17:14:32.165Z,18.67
2019-01-24T17:16:59.934Z,12.07
2019-01-24T17:19:27.683Z,15.07
2019-01-24T17:21:55.537Z,17.33
2019-01-24T17:24:23.256Z,16.93
2019-01-24T17:26:51.005Z,10.87
2019-01-24T17:29:18.993Z,12.97
2019-01-24T17:31:46.723Z,10.07
2019-01-24T17:34:14.441Z,16.83
2019-01-24T17:36:42.145Z,14.90
2019-01-24T17:39:11.260Z,17.48
2019-01-24T17:41:38.989Z,14.67
2019-01-24T17:44:06.726Z,15.83
2019-01-24T17:46:34.420Z,18.07
2019-01-24T17:49:02.153Z,20.10
2019-01-24T17:51:29.857Z,10.97
2019-01-24T17:53:57.565Z,12.43
2019-01-24T17:56:25.337Z,14.07
2019-01-24T17:58:53.113Z,17.15
2019-01-24T18:01:20.806Z,16.73
2019-01-24T18:03:48.522Z,12.20
2019-01-24T18:06:16.250Z,14.60
2019-01-24T18:08:43.958Z,13.10
2019-01-24T18:11:11.688Z,15.87
2019-01-24T18:13:39.401Z,17.10
2019-01-24T18:16:07.104Z,17.83
2019-01-24T18:18:34.818Z,11.53
2019-01-24T18:21:02.552Z,19.53
2019-01-24T18:23:30.243Z,16.40
2019-01-24T18:25:58.028Z,16.20
2019-01-24T18:28:25.833Z,14.93
2019-01-24T18:30:53.589Z,12.47
2019-01-24T18:33:21.300Z,16.97
2019-01-24T18:35:48.988Z,13.47
2019-01-24T18:38:16.735Z,14.13
2019-01-24T18:40:44.437Z,11.47
2019-01-24T18:43:20.952Z,13.37
2019-01-24T18:45:49.185Z,15.77
2019-01-24T18:48:16.890Z,15.23
2019-01-24T18:50:44.698Z,14.13
2019-01-24T18:53:12.398Z,12.93
2019-01-24T18:55:40.101Z,10.97
2019-01-24T18:58:07.850Z,14.00
2019-01-24T19:00:38.003Z,13.70
2019-01-24T19:03:06.682Z,13.37
2019-01-24T19:05:34.397Z,13.20
2019-01-24T19:08:02.113Z,11.37
2019-01-24T19:10:29.852Z,15.23
2019-01-24T19:12:57.887Z,18.60
2019-01-24T19:15:25.625Z,16.53
2019-01-24T19:17:53.342Z,16.73
2019-01-24T19:20:21.062Z,11.03
2019-01-24T19:22:48.765Z,16.03
2019-01-24T19:25:17.110Z,15.07
2019-01-24T19:27:44.953Z,13.43
2019-01-24T19:30:31.099Z,15.27
2019-01-24T19:32:58.909Z,14.30
2019-01-24T19:35:26.648Z,11.47
2019-01-24T19:37:54.387Z,16.07
2019-01-24T19:40:22.563Z,14.20
2019-01-24T19:42:50.297Z,20.13
2019-01-24T19:45:19.493Z,18.07
2019-01-24T19:47:47.222Z,12.87
2019-01-24T19:50:19.734Z,12.77
2019-01-24T19:52:47.476Z,15.90
2019-01-24T19:55:15.202Z,12.57
2019-01-24T19:57:42.910Z,12.83
2019-01-24T20:00:13.649Z,13.63
2019-01-24T20:02:41.346Z,12.77
2019-01-24T20:05:09.968Z,14.17
2019-01-24T20:07:37.713Z,13.37
2019-01-24T20:10:07.137Z,15.90
2019-01-24T20:12:34.871Z,11.20
2019-01-24T20:15:02.578Z,14.00
2019-01-24T20:17:30.385Z,13.90
2019-01-24T20:19:58.114Z,14.83
2019-01-24T20:22:25.850Z,14.63
2019-01-24T20:24:53.562Z,13.53
2019-01-24T20:27:21.305Z,15.00
2019-01-24T20:29:49.037Z,13.93
2019-01-24T20:32:16.739Z,18.50
2019-01-24T20:34:44.425Z,17.83
2019-01-24T20:37:12.144Z,14.20
2019-01-24T20:39:39.841Z,13.60
2019-01-24T20:42:07.564Z,14.10
2019-01-24T20:44:35.268Z,13.30
2019-01-24T20:47:03.082Z,18.00
2019-01-24T20:51:58.041Z,18.17
2019-01-24T20:54:25.758Z,16.00
2019-01-24T20:56:53.469Z,13.70
2019-01-24T20:59:21.237Z,15.47
2019-01-24T21:01:48.922Z,15.83
2019-01-24T21:04:16.757Z,15.03
2019-01-24T21:06:44.454Z,15.60
2019-01-24T21:09:14.891Z,12.00
2019-01-24T21:11:41.891Z,14.83
2019-01-24T21:14:09.584Z,14.67
2019-01-24T21:16:37.365Z,12.10
2019-01-24T21:19:05.150Z,16.47
2019-01-24T21:21:32.911Z,14.33
2019-01-24T21:24:00.613Z,14.30
2019-01-24T21:26:28.379Z,13.70
2019-01-24T21:28:56.178Z,16.23
2019-01-24T21:31:23.866Z,13.77
2019-01-24T21:33:51.642Z,14.03
2019-01-24T21:36:19.357Z,14.13
2019-01-24T21:38:47.092Z,16.07
2019-01-24T21:41:14.793Z,17.10
2019-01-24T21:43:42.497Z,13.40
2019-01-24T21:46:10.213Z,15.50
2019-01-24T21:48:37.913Z,19.40
2019-01-24T21:51:11.079Z,13.80
2019-01-24T21:53:35.366Z,11.97
2019-01-24T21:56:03.049Z,14.70
2019-01-24T21:58:30.758Z,17.97
2019-01-24T22:00:58.500Z,13.80
2019-01-24T22:03:27.803Z,13.90
2019-01-24T22:05:55.537Z,12.83
2019-01-24T22:08:23.258Z,15.57
2019-01-24T22:10:50.951Z,16.67
2019-01-24T22:13:18.664Z,13.70
2019-01-24T22:15:46.371Z,14.17
2019-01-24T22:18:14.057Z,12.43
2019-01-24T22:20:41.790Z,17.93
2019-01-24T22:23:09.485Z,14.53
2019-01-24T22:25:37.258Z,15.80
2019-01-24T22:28:05.644Z,17.67
2019-01-24T22:30:39.248Z,15.17
2019-01-24T22:33:07.045Z,16.10
2019-01-24T22:35:34.770Z,13.97
2019-01-24T22:38:02.582Z,18.67
2019-01-24T22:40:30.277Z,15.33
2019-01-24T22:42:58.001Z,14.70
2019-01-24T22:45:25.698Z,17.57
2019-01-24T22:47:53.421Z,13.53
2019-01-24T22:50:21.132Z,16.50
2019-01-24T22:52:48.833Z,20.30
2019-01-24T22:55:16.568Z,15.83
2019-01-24T22:57:44.269Z,15.40
2019-01-24T23:00:54.750Z,16.33
2019-01-24T23:03:29.053Z,19.13
2019-01-24T23:05:56.771Z,14.60
2019-01-24T23:08:24.472Z,17.27
2019-01-24T23:10:52.171Z,20.07
2019-01-24T23:13:19.893Z,14.00
2019-01-24T23:15:47.593Z,18.57
2019-01-24T23:18:15.325Z,23.03
2019-01-24T23:20:43.023Z,14.60
2019-01-24T23:23:10.746Z,14.50
2019-01-24T23:25:38.424Z,15.93
2019-01-24T23:28:06.138Z,19.23
2019-01-24T23:30:34.077Z,15.77
2019-01-24T23:33:01.777Z,15.10
2019-01-24T23:35:29.504Z,15.63
2019-01-24T23:37:57.241Z,15.30
2019-01-24T23:40:24.977Z,18.43
2019-01-24T23:42:52.669Z,17.63
2019-01-24T23:45:20.433Z,18.40
2019-01-24T23:47:48.100Z,17.07
2019-01-24T23:50:15.793Z,17.83
2019-01-24T23:52:43.513Z,15.80
2019-01-24T23:55:12.137Z,18.47
2019-01-24T23:57:39.861Z,17.80
